Time;durP1;ratioP1;P1;durP2;ratioP2;P2;SDS_P1;SDS_P2;PMS_P1;PMS_P2;Temp;Humidity;BMP_temperature;BMP_pressure;BME280_temperature;BME280_humidity;BME280_pressure;Samples;Min_cycle;Max_cycle;Signal;HPM_P1;HPM_P2
2021/07/20 00:00:46;;;;;;;13.70;11.40;;;22.10;99.90;;;;;;5072050;28;20562;-73
2021/07/20 00:03:13;;;;;;;11.65;10.45;;;22.00;99.90;;;;;;5072550;28;20222;-74
2021/07/20 00:05:41;;;;;;;11.98;9.68;;;22.00;99.90;;;;;;5069550;28;20206;-73
2021/07/20 00:08:10;;;;;;;12.25;10.90;;;22.00;99.90;;;;;;5072533;28;20709;-72
2021/07/20 00:10:42;;;;;;;14.90;11.35;;;22.00;99.90;;;;;;5071959;28;20268;-73
2021/07/20 00:13:11;;;;;;;12.70;11.23;;;22.00;99.90;;;;;;5072527;28;20206;-74
2021/07/20 00:15:39;;;;;;;10.82;9.60;;;22.00;99.90;;;;;;5071991;28;20810;-72
2021/07/20 00:18:09;;;;;;;14.70;10.40;;;22.00;99.90;;;;;;5072538;28;20202;-72
2021/07/20 00:20:37;;;;;;;12.55;10.05;;;22.00;99.90;;;;;;5073064;28;20214;-73
2021/07/20 00:23:05;;;;;;;13.20;11.88;;;22.00;99.90;;;;;;5072311;28;20260;-73
2021/07/20 00:25:32;;;;;;;12.88;11.55;;;21.90;99.90;;;;;;5071353;28;20279;-73
2021/07/20 00:28:00;;;;;;;11.52;9.40;;;21.90;99.90;;;;;;5071612;28;20210;-73
2021/07/20 00:30:29;;;;;;;12.07;10.52;;;21.80;99.90;;;;;;5072238;28;20213;-73
2021/07/20 00:32:56;;;;;;;17.42;11.00;;;21.80;99.90;;;;;;5071937;28;20578;-74
2021/07/20 00:35:24;;;;;;;12.52;11.00;;;21.80;99.90;;;;;;5071861;28;20674;-73
2021/07/20 00:37:51;;;;;;;12.70;10.15;;;21.80;99.90;;;;;;5071864;28;20206;-73
2021/07/20 00:40:19;;;;;;;12.07;10.75;;;21.70;99.90;;;;;;5071514;28;20677;-74
2021/07/20 00:42:47;;;;;;;15.90;11.43;;;21.60;99.90;;;;;;5071537;28;20205;-74
2021/07/20 00:45:18;;;;;;;12.73;9.48;;;21.50;99.90;;;;;;5071672;28;20296;-73
2021/07/20 00:47:48;;;;;;;13.02;11.45;;;21.50;99.90;;;;;;5071240;28;20210;-74
2021/07/20 00:50:20;;;;;;;12.30;10.50;;;21.50;99.90;;;;;;5071767;28;20256;-73
2021/07/20 00:52:47;;;;;;;11.82;10.38;;;21.50;99.90;;;;;;5071484;28;20263;-73
2021/07/20 00:55:16;;;;;;;18.42;11.30;;;21.40;99.90;;;;;;5071059;28;20268;-73
2021/07/20 00:57:43;;;;;;;11.10;9.40;;;21.30;99.90;;;;;;5071065;28;20643;-73
2021/07/20 01:00:13;;;;;;;13.30;11.07;;;21.40;99.90;;;;;;5071489;28;20662;-73
2021/07/20 01:02:40;;;;;;;15.90;9.85;;;21.50;99.90;;;;;;5070992;28;20265;-73
2021/07/20 01:05:11;;;;;;;15.73;10.85;;;21.50;99.90;;;;;;5071354;28;20721;-73
2021/07/20 01:07:40;;;;;;;13.48;10.20;;;21.50;99.90;;;;;;5071029;28;20202;-73
2021/07/20 01:10:09;;;;;;;12.52;11.23;;;21.30;99.90;;;;;;5071450;28;20271;-73
2021/07/20 01:12:39;;;;;;;14.70;10.30;;;21.30;99.90;;;;;;5071200;28;20256;-73
2021/07/20 01:15:08;;;;;;;18.00;11.65;;;21.40;99.90;;;;;;5071598;28;20206;-73
2021/07/20 01:17:36;;;;;;;15.82;10.68;;;21.40;99.90;;;;;;5071327;28;20256;-73
2021/07/20 01:20:10;;;;;;;17.25;12.55;;;21.40;99.90;;;;;;5071553;28;20237;-73
2021/07/20 01:22:38;;;;;;;20.48;13.40;;;21.40;99.90;;;;;;5070545;28;20613;-72
2021/07/20 01:25:11;;;;;;;13.48;12.07;;;21.40;99.90;;;;;;5071292;28;20233;-73
2021/07/20 01:27:44;;;;;;;12.93;10.02;;;21.30;99.90;;;;;;5070685;28;20569;-73
2021/07/20 01:30:13;;;;;;;16.33;11.63;;;21.30;99.90;;;;;;5070800;28;20293;-73
2021/07/20 01:32:44;;;;;;;18.27;11.15;;;21.20;99.90;;;;;;5070640;28;20293;-73
2021/07/20 01:35:13;;;;;;;18.40;11.80;;;21.30;99.90;;;;;;5057728;28;20209;-73
2021/07/20 01:37:42;;;;;;;12.43;10.63;;;21.30;99.90;;;;;;5070387;28;20263;-73
2021/07/20 01:40:12;;;;;;;12.10;10.13;;;21.20;99.90;;;;;;5070528;28;20661;-73
2021/07/20 01:42:44;;;;;;;15.50;10.55;;;21.20;99.90;;;;;;5070394;28;20677;-73
2021/07/20 01:45:12;;;;;;;11.70;9.32;;;21.10;99.90;;;;;;5070524;28;20237;-73
2021/07/20 01:47:41;;;;;;;12.00;9.95;;;21.10;99.90;;;;;;5070384;28;20642;-73
2021/07/20 01:50:09;;;;;;;15.40;11.05;;;21.00;99.90;;;;;;5070598;28;20251;-73
2021/07/20 01:52:37;;;;;;;11.20;9.95;;;20.90;99.90;;;;;;5070101;28;20267;-74
2021/07/20 01:55:05;;;;;;;11.75;9.60;;;20.80;99.90;;;;;;5070922;28;20210;-73
2021/07/20 01:57:34;;;;;;;13.13;10.27;;;20.80;99.90;;;;;;5070571;28;20206;-73
2021/07/20 02:00:01;;;;;;;12.88;10.73;;;20.90;99.90;;;;;;5070069;28;20638;-74
2021/07/20 02:02:33;;;;;;;14.02;9.40;;;20.90;99.90;;;;;;5070878;28;20213;-73
2021/07/20 02:10:37;;;;;;;16.05;10.77;;;20.80;99.90;;;;;;5070539;28;20254;-73
2021/07/20 02:13:06;;;;;;;17.38;10.68;;;20.80;99.90;;;;;;5070823;28;20198;-75
2021/07/20 02:15:38;;;;;;;15.18;10.57;;;20.70;99.90;;;;;;5070956;28;20685;-74
2021/07/20 02:18:07;;;;;;;15.50;11.60;;;20.60;99.90;;;;;;5070731;28;20237;-75
2021/07/20 02:20:39;;;;;;;13.45;10.13;;;20.60;99.90;;;;;;5070404;28;20737;-74
2021/07/20 02:23:07;;;;;;;15.27;10.35;;;20.60;99.90;;;;;;5070422;28;20205;-74
2021/07/20 02:25:35;;;;;;;15.27;9.73;;;20.70;99.90;;;;;;5070673;28;20238;-74
2021/07/20 02:28:03;;;;;;;10.23;9.02;;;20.80;99.90;;;;;;5070455;28;20677;-74
2021/07/20 02:30:33;;;;;;;11.68;9.73;;;20.80;99.90;;;;;;5070276;28;20731;-74
2021/07/20 02:33:02;;;;;;;15.18;9.70;;;20.80;99.90;;;;;;5070016;28;20202;-74
2021/07/20 02:35:29;;;;;;;13.82;11.18;;;20.80;99.90;;;;;;5070023;28;20214;-72
2021/07/20 02:37:58;;;;;;;12.23;9.73;;;20.80;99.90;;;;;;5069725;28;20210;-72
2021/07/20 02:40:26;;;;;;;12.27;10.85;;;20.90;99.90;;;;;;5070366;28;20210;-71
2021/07/20 02:42:57;;;;;;;14.57;10.38;;;20.90;99.90;;;;;;5069837;28;20238;-72
2021/07/20 02:45:25;;;;;;;12.57;9.68;;;20.80;99.90;;;;;;5070095;28;20778;-74
2021/07/20 02:47:53;;;;;;;16.02;10.57;;;20.80;99.90;;;;;;5069842;28;20210;-75
2021/07/20 02:50:26;;;;;;;12.93;9.98;;;20.80;99.90;;;;;;5073252;28;20685;-75
2021/07/20 02:52:54;;;;;;;10.63;9.55;;;20.70;99.90;;;;;;5073784;28;20638;-74
2021/07/20 02:55:21;;;;;;;11.95;9.65;;;20.60;99.90;;;;;;5073791;28;20202;-74
2021/07/20 02:57:50;;;;;;;13.05;9.70;;;20.60;99.90;;;;;;5073769;28;20267;-74
2021/07/20 03:00:18;;;;;;;11.20;10.00;;;20.60;99.90;;;;;;5073553;28;20289;-74
2021/07/20 03:02:46;;;;;;;12.05;9.82;;;20.40;99.90;;;;;;5073586;28;20678;-74
2021/07/20 03:05:16;;;;;;;12.48;9.23;;;20.50;99.90;;;;;;5073163;28;20351;-74
2021/07/20 03:07:47;;;;;;;13.45;11.02;;;20.50;99.90;;;;;;5073635;28;20266;-74
2021/07/20 03:10:16;;;;;;;12.23;9.50;;;20.50;99.90;;;;;;5073663;28;20252;-74
2021/07/20 03:12:46;;;;;;;11.23;9.93;;;20.60;99.90;;;;;;5073035;28;20203;-74
2021/07/20 03:15:14;;;;;;;15.80;10.68;;;20.50;99.90;;;;;;5073464;28;20205;-74
2021/07/20 03:17:42;;;;;;;12.77;9.50;;;20.50;99.90;;;;;;5073105;28;20298;-74
2021/07/20 03:20:12;;;;;;;13.50;9.75;;;20.50;99.90;;;;;;5073269;28;20207;-74
2021/07/20 03:22:42;;;;;;;11.93;10.55;;;20.50;99.90;;;;;;5073066;28;20272;-72
2021/07/20 03:25:12;;;;;;;12.15;9.10;;;20.40;99.90;;;;;;5073329;28;20280;-73
2021/07/20 03:27:41;;;;;;;12.80;11.13;;;20.40;99.90;;;;;;5072739;28;20596;-73
2021/07/20 03:30:10;;;;;;;14.90;11.32;;;20.40;99.90;;;;;;5073621;28;20276;-74
2021/07/20 03:32:38;;;;;;;13.35;10.35;;;20.40;99.90;;;;;;5072840;28;20210;-73
2021/07/20 03:35:07;;;;;;;13.48;10.70;;;20.40;99.90;;;;;;5073277;28;20234;-73
2021/07/20 03:37:34;;;;;;;11.75;10.48;;;20.30;99.90;;;;;;5073458;28;20267;-73
2021/07/20 03:40:04;;;;;;;12.15;10.80;;;20.20;99.90;;;;;;5073069;28;20209;-73
2021/07/20 03:42:31;;;;;;;12.32;11.10;;;20.20;99.90;;;;;;5073377;28;20206;-74
2021/07/20 03:44:58;;;;;;;13.25;10.82;;;20.10;99.90;;;;;;5072365;28;20271;-73
2021/07/20 03:47:26;;;;;;;14.20;11.02;;;20.10;99.90;;;;;;5072976;28;20731;-74
2021/07/20 03:49:53;;;;;;;21.25;11.68;;;20.20;99.90;;;;;;5072342;28;20214;-72
2021/07/20 03:52:21;;;;;;;14.25;11.07;;;20.20;99.90;;;;;;5072815;28;20752;-72
2021/07/20 03:54:48;;;;;;;12.65;10.27;;;20.20;99.90;;;;;;5072769;28;20565;-72
2021/07/20 03:57:20;;;;;;;12.73;11.35;;;20.20;99.90;;;;;;5059136;28;20210;-74
2021/07/20 03:59:49;;;;;;;12.02;10.15;;;20.10;99.90;;;;;;5072160;28;20202;-73
2021/07/20 04:02:19;;;;;;;13.50;11.02;;;20.10;99.90;;;;;;5072578;28;20206;-73
2021/07/20 04:04:48;;;;;;;14.50;10.18;;;20.10;99.90;;;;;;5072274;28;20233;-72
2021/07/20 04:07:19;;;;;;;13.32;11.07;;;20.10;99.90;;;;;;5072531;28;20259;-72
2021/07/20 04:09:48;;;;;;;11.55;10.38;;;20.10;99.90;;;;;;5072511;28;20210;-72
2021/07/20 04:12:18;;;;;;;13.98;11.32;;;20.00;99.90;;;;;;5072294;28;20229;-72
2021/07/20 04:14:46;;;;;;;12.70;10.93;;;19.90;99.90;;;;;;5058308;28;20206;-72
2021/07/20 04:17:14;;;;;;;12.00;10.52;;;20.00;99.90;;;;;;5072223;28;20206;-72
2021/07/20 04:19:42;;;;;;;12.48;10.93;;;19.90;99.90;;;;;;5071744;28;20263;-72
2021/07/20 04:22:10;;;;;;;11.60;10.38;;;20.00;99.90;;;;;;5072644;28;20267;-73
2021/07/20 04:24:39;;;;;;;13.35;10.35;;;20.00;99.90;;;;;;5071747;28;20226;-72
2021/07/20 04:27:07;;;;;;;13.80;11.38;;;20.00;99.90;;;;;;5072627;28;20206;-74
2021/07/20 04:29:35;;;;;;;13.10;11.35;;;20.00;99.90;;;;;;5072486;28;20210;-73
2021/07/20 04:32:05;;;;;;;18.10;12.13;;;20.00;99.90;;;;;;5072060;28;20252;-73
2021/07/20 04:34:33;;;;;;;13.45;10.25;;;20.00;99.90;;;;;;5072276;28;20206;-74
2021/07/20 04:37:02;;;;;;;15.00;11.48;;;19.90;99.90;;;;;;5071642;28;20622;-74
2021/07/20 04:39:29;;;;;;;13.10;10.85;;;19.90;99.90;;;;;;5072233;28;20210;-74
2021/07/20 04:41:57;;;;;;;16.75;11.07;;;19.90;99.90;;;;;;5071700;28;20210;-72
2021/07/20 04:44:24;;;;;;;13.13;11.25;;;19.90;99.90;;;;;;5071650;28;20678;-74
2021/07/20 04:46:53;;;;;;;13.18;9.88;;;20.00;99.90;;;;;;5070989;28;20279;-73
2021/07/20 04:49:20;;;;;;;11.45;9.82;;;19.90;99.90;;;;;;5071811;28;20657;-72
2021/07/20 04:51:49;;;;;;;13.95;11.43;;;19.90;99.90;;;;;;5071251;28;20657;-73
2021/07/20 04:54:18;;;;;;;16.98;11.43;;;19.90;99.90;;;;;;5071695;28;20263;-73
2021/07/20 04:56:45;;;;;;;12.90;11.10;;;19.90;99.90;;;;;;5071484;28;20206;-74
2021/07/20 04:59:12;;;;;;;12.40;10.52;;;19.90;99.90;;;;;;5071153;28;20750;-75
2021/07/20 05:01:41;;;;;;;18.25;11.90;;;20.00;99.90;;;;;;5070965;28;20252;-73
2021/07/20 05:04:10;;;;;;;15.48;13.15;;;20.00;99.90;;;;;;5071403;28;20206;-73
2021/07/20 05:06:39;;;;;;;13.82;9.15;;;19.90;99.90;;;;;;5071304;28;20234;-73
2021/07/20 05:09:07;;;;;;;15.15;10.15;;;19.90;99.90;;;;;;5071678;28;20202;-74
2021/07/20 05:11:37;;;;;;;14.60;10.82;;;20.00;99.90;;;;;;5070895;28;20751;-73
2021/07/20 05:14:04;;;;;;;13.30;11.13;;;19.90;99.90;;;;;;5071318;28;20220;-74
2021/07/20 05:16:33;;;;;;;17.08;10.18;;;20.10;99.90;;;;;;5071394;28;20574;-74
2021/07/20 05:19:02;;;;;;;16.02;11.60;;;20.10;99.90;;;;;;5070775;28;20305;-73
2021/07/20 05:21:30;;;;;;;13.10;11.23;;;20.10;99.90;;;;;;5070970;28;20665;-75
2021/07/20 05:23:58;;;;;;;12.73;10.38;;;20.20;99.90;;;;;;5070682;28;20252;-75
2021/07/20 05:26:26;;;;;;;10.75;9.68;;;20.20;99.90;;;;;;5070681;28;20233;-74
2021/07/20 05:28:54;;;;;;;15.88;10.20;;;20.20;99.90;;;;;;5070911;28;20264;-72
2021/07/20 05:31:23;;;;;;;12.18;10.60;;;20.20;99.90;;;;;;5070571;28;20275;-73
2021/07/20 05:33:50;;;;;;;10.93;9.32;;;20.30;99.90;;;;;;5070709;28;20256;-72
2021/07/20 05:36:17;;;;;;;13.27;10.93;;;20.40;99.90;;;;;;5070580;28;20212;-73
2021/07/20 05:38:46;;;;;;;14.73;10.85;;;20.50;99.90;;;;;;5070373;28;20627;-73
2021/07/20 05:41:13;;;;;;;15.90;11.25;;;20.50;99.90;;;;;;5071037;28;20279;-73
2021/07/20 05:43:41;;;;;;;12.82;9.75;;;20.60;99.90;;;;;;5056785;28;20256;-73
2021/07/20 05:46:09;;;;;;;10.85;9.30;;;20.70;99.90;;;;;;5070844;28;20234;-73
2021/07/20 05:48:38;;;;;;;13.82;9.18;;;20.80;99.90;;;;;;5070570;28;20210;-73
2021/07/20 05:51:05;;;;;;;14.27;9.68;;;20.90;99.90;;;;;;5070859;28;20657;-73
2021/07/20 05:53:34;;;;;;;14.75;10.88;;;20.90;99.90;;;;;;5070861;28;20268;-75
2021/07/20 05:56:04;;;;;;;11.57;10.07;;;21.00;99.90;;;;;;5071167;28;20216;-74
2021/07/20 05:58:31;;;;;;;14.25;10.95;;;21.00;99.90;;;;;;5071142;28;20206;-74
2021/07/20 06:01:01;;;;;;;14.65;9.70;;;21.10;99.90;;;;;;5070255;28;20202;-73
2021/07/20 06:03:29;;;;;;;13.77;11.15;;;21.10;99.90;;;;;;5070381;28;20568;-73
2021/07/20 06:05:57;;;;;;;13.18;10.00;;;21.20;99.90;;;;;;5070210;28;20287;-73
2021/07/20 06:08:27;;;;;;;13.40;10.38;;;21.20;99.90;;;;;;5070811;28;20301;-73
2021/07/20 06:10:56;;;;;;;11.70;9.90;;;21.30;99.90;;;;;;5069953;28;20259;-73
2021/07/20 06:13:27;;;;;;;12.00;10.38;;;21.40;99.90;;;;;;5070337;28;20275;-73
2021/07/20 06:15:55;;;;;;;12.25;10.27;;;21.50;99.90;;;;;;5069712;28;20202;-73
2021/07/20 06:18:22;;;;;;;12.73;10.30;;;21.60;99.90;;;;;;5070408;28;20210;-73
2021/07/20 06:20:54;;;;;;;15.48;10.98;;;21.60;99.90;;;;;;5070142;28;20206;-73
2021/07/20 06:23:22;;;;;;;14.98;10.60;;;21.70;99.90;;;;;;5070985;28;20198;-72
2021/07/20 06:25:51;;;;;;;13.85;11.93;;;21.80;99.90;;;;;;5074148;28;20237;-73
2021/07/20 06:28:19;;;;;;;14.95;10.43;;;21.80;99.90;;;;;;5074100;28;20206;-73
2021/07/20 06:30:48;;;;;;;11.80;10.60;;;21.90;99.90;;;;;;5073853;28;20210;-72
2021/07/20 06:33:17;;;;;;;15.45;12.00;;;22.00;99.90;;;;;;5073039;28;20206;-72
2021/07/20 06:35:46;;;;;;;18.75;12.02;;;21.90;99.90;;;;;;5073331;28;20202;-72
2021/07/20 06:38:15;;;;;;;14.88;12.00;;;22.00;99.90;;;;;;5072947;28;20593;-72
2021/07/20 06:40:44;;;;;;;14.57;10.95;;;22.20;99.90;;;;;;5073496;28;20855;-72
2021/07/20 06:43:12;;;;;;;13.65;11.68;;;22.30;99.90;;;;;;5071879;28;20290;-72
2021/07/20 06:45:41;;;;;;;14.00;11.68;;;22.30;99.90;;;;;;5073476;28;20312;-72
2021/07/20 06:48:13;;;;;;;16.00;12.63;;;22.50;99.90;;;;;;5074206;28;20206;-72
2021/07/20 06:50:41;;;;;;;13.90;11.07;;;22.50;99.90;;;;;;5073806;28;20210;-72
2021/07/20 06:53:08;;;;;;;16.63;13.43;;;22.60;99.90;;;;;;5074248;28;20263;-72
2021/07/20 06:55:38;;;;;;;13.40;10.23;;;22.70;99.90;;;;;;5074532;28;20210;-72
2021/07/20 06:58:07;;;;;;;15.05;13.02;;;22.80;99.90;;;;;;5079071;28;20193;-72
2021/07/20 07:00:35;;;;;;;15.45;10.90;;;23.00;99.90;;;;;;5091694;28;20201;-72
2021/07/20 07:03:04;;;;;;;11.50;10.30;;;23.10;99.90;;;;;;5090894;28;20289;-74
2021/07/20 07:05:33;;;;;;;14.07;10.57;;;23.20;99.90;;;;;;5076003;28;20238;-74
2021/07/20 07:08:02;;;;;;;16.30;11.75;;;23.20;99.90;;;;;;5088680;28;20205;-74
2021/07/20 07:10:30;;;;;;;13.63;11.45;;;23.20;99.90;;;;;;5089275;28;20263;-74
2021/07/20 07:12:58;;;;;;;15.48;10.93;;;23.30;99.90;;;;;;5088624;28;20255;-74
2021/07/20 07:15:26;;;;;;;23.05;11.00;;;23.50;99.90;;;;;;5089655;28;20246;-74
2021/07/20 07:17:53;;;;;;;10.77;9.60;;;23.70;99.90;;;;;;5089280;28;20210;-74
2021/07/20 07:20:26;;;;;;;11.85;10.65;;;23.90;99.90;;;;;;5091715;28;20209;-74
2021/07/20 07:22:55;;;;;;;15.75;12.30;;;24.00;99.90;;;;;;5075422;28;20206;-74
2021/07/20 07:25:23;;;;;;;15.82;11.02;;;24.10;99.90;;;;;;5073127;28;20214;-74
2021/07/20 07:27:53;;;;;;;12.52;10.80;;;24.20;99.90;;;;;;5072546;28;20248;-74
2021/07/20 07:30:21;;;;;;;16.90;11.65;;;24.30;99.90;;;;;;5073123;28;20696;-74
2021/07/20 07:32:49;;;;;;;12.18;10.88;;;24.40;99.90;;;;;;5072879;28;20206;-74
2021/07/20 07:35:17;;;;;;;14.73;11.07;;;24.60;99.90;;;;;;5072725;28;20205;-73
2021/07/20 07:37:45;;;;;;;15.60;12.48;;;24.80;99.90;;;;;;5072519;28;20214;-74
2021/07/20 07:40:17;;;;;;;12.93;10.75;;;24.90;99.90;;;;;;5071828;28;20748;-74
2021/07/20 07:42:44;;;;;;;16.42;11.30;;;25.00;99.90;;;;;;5072060;28;20260;-73
2021/07/20 07:45:14;;;;;;;15.02;11.32;;;25.10;99.90;;;;;;5072589;28;20669;-74
2021/07/20 07:47:43;;;;;;;13.98;11.63;;;25.20;99.90;;;;;;5072522;28;20242;-73
2021/07/20 07:50:11;;;;;;;16.02;10.93;;;25.30;99.90;;;;;;5076991;28;20685;-74
2021/07/20 07:52:40;;;;;;;16.77;11.32;;;25.40;99.90;;;;;;5072111;28;20256;-74
2021/07/20 07:55:09;;;;;;;17.25;11.63;;;25.40;99.90;;;;;;5072698;28;20210;-71
2021/07/20 07:57:38;;;;;;;18.15;11.55;;;25.40;99.90;;;;;;5072520;28;20209;-71
2021/07/20 08:00:08;;;;;;;16.52;11.18;;;25.70;99.90;;;;;;5073227;28;20243;-72
2021/07/20 08:02:36;;;;;;;14.05;10.88;;;25.90;99.90;;;;;;5085025;28;20202;-72
2021/07/20 08:05:06;;;;;;;15.90;11.30;;;26.00;99.90;;;;;;5072249;28;20209;-72
2021/07/20 08:07:35;;;;;;;12.63;10.45;;;26.40;99.90;;;;;;5064803;28;20241;-73
2021/07/20 08:10:02;;;;;;;14.85;10.30;;;26.90;99.90;;;;;;5071008;28;20214;-74
2021/07/20 08:12:30;;;;;;;15.45;10.20;;;27.40;99.90;;;;;;5071488;28;20206;-73
2021/07/20 08:14:59;;;;;;;13.23;10.43;;;27.50;99.90;;;;;;5071930;28;20296;-73
2021/07/20 08:17:27;;;;;;;13.50;10.50;;;28.90;99.90;;;;;;5072557;28;20279;-72
2021/07/20 08:19:57;;;;;;;12.00;9.48;;;29.70;99.90;;;;;;5071529;28;20285;-72
2021/07/20 08:22:26;;;;;;;16.77;8.20;;;28.50;99.90;;;;;;5070404;28;20296;-72
2021/07/20 08:24:58;;;;;;;13.27;9.10;;;27.80;99.90;;;;;;5084087;28;20210;-73
2021/07/20 08:27:32;;;;;;;10.00;7.95;;;27.80;99.90;;;;;;5088890;28;20747;-71
2021/07/20 08:30:04;;;;;;;10.77;8.45;;;27.90;99.90;;;;;;5088338;28;20247;-72
2021/07/20 08:32:36;;;;;;;11.23;7.88;;;27.90;99.90;;;;;;5085695;28;20201;-74
2021/07/20 08:35:07;;;;;;;11.90;7.82;;;28.00;99.90;;;;;;5091292;28;20675;-73
2021/07/20 08:37:36;;;;;;;10.73;8.02;;;28.10;99.90;;;;;;5081996;28;20327;-73
2021/07/20 08:40:13;;;;;;;8.25;7.13;;;28.80;99.90;;;;;;5081851;28;20260;-72
2021/07/20 08:42:49;;;;;;;10.23;7.65;;;28.80;99.90;;;;;;5086487;28;20209;-73
2021/07/20 08:45:22;;;;;;;10.80;8.65;;;29.50;99.90;;;;;;5085757;28;20660;-73
2021/07/20 08:48:02;;;;;;;11.13;7.50;;;30.30;99.90;;;;;;5088942;28;20232;-73
2021/07/20 08:50:31;;;;;;;10.63;7.50;;;30.60;99.90;;;;;;5090192;28;20247;-72
2021/07/20 08:53:18;;;;;;;8.13;7.28;;;30.30;99.90;;;;;;5086555;28;20672;-70
2021/07/20 08:55:48;;;;;;;9.25;6.72;;;29.70;99.90;;;;;;5083763;28;20212;-72
2021/07/20 08:58:22;;;;;;;7.97;7.07;;;30.10;99.90;;;;;;5074478;28;20201;-72
2021/07/20 09:00:54;;;;;;;7.50;6.72;;;30.00;99.90;;;;;;5082983;28;20206;-72
2021/07/20 09:03:36;;;;;;;9.43;6.15;;;29.90;99.90;;;;;;5076694;28;20631;-71
2021/07/20 09:06:06;;;;;;;9.85;7.22;;;30.00;99.90;;;;;;5079355;28;20222;-71
2021/07/20 09:08:38;;;;;;;8.13;6.38;;;30.70;99.90;;;;;;5089375;28;20201;-73
2021/07/20 09:11:14;;;;;;;7.95;7.15;;;31.40;99.90;;;;;;5091121;28;20270;-71
2021/07/20 09:13:48;;;;;;;8.70;6.97;;;30.30;99.90;;;;;;5088673;28;20258;-72
2021/07/20 09:16:29;;;;;;;10.77;7.63;;;30.20;99.90;;;;;;5088426;28;20212;-72
2021/07/20 09:19:02;;;;;;;7.70;6.88;;;30.50;99.90;;;;;;5086925;28;21225;-72
2021/07/20 09:21:32;;;;;;;8.60;7.60;;;30.50;99.90;;;;;;5081814;28;20649;-73
2021/07/20 09:24:06;;;;;;;8.13;6.50;;;30.50;99.90;;;;;;5083577;28;20252;-72
2021/07/20 09:26:40;;;;;;;7.03;6.28;;;30.70;99.90;;;;;;5085934;28;20282;-72
2021/07/20 09:29:13;;;;;;;9.73;7.25;;;31.30;99.90;;;;;;5082558;28;20197;-72
2021/07/20 09:32:00;;;;;;;7.70;6.65;;;32.00;99.90;;;;;;5081132;28;20656;-72
2021/07/20 09:34:32;;;;;;;8.07;6.05;;;31.50;99.90;;;;;;5080303;28;20251;-71
2021/07/20 09:37:03;;;;;;;6.05;5.40;;;31.10;99.90;;;;;;5077666;28;20230;-72
2021/07/20 09:39:42;;;;;;;8.88;6.70;;;30.80;99.90;;;;;;5086714;28;20201;-71
2021/07/20 09:42:16;;;;;;;7.30;5.82;;;31.80;99.90;;;;;;5087916;28;20257;-71
2021/07/20 09:44:52;;;;;;;8.30;6.10;;;33.30;99.90;;;;;;5075401;28;20287;-71
2021/07/20 09:47:26;;;;;;;6.18;5.57;;;32.90;99.90;;;;;;5081546;28;20273;-72
2021/07/20 09:50:15;;;;;;;6.35;5.72;;;32.70;99.90;;;;;;5085856;28;20740;-70
2021/07/20 09:53:12;;;;;;;9.52;6.70;;;32.70;99.90;;;;;;5083295;28;20237;-71
2021/07/20 09:55:48;;;;;;;7.40;5.15;;;32.10;99.90;;;;;;5080790;28;20257;-71
2021/07/20 09:58:22;;;;;;;6.90;6.30;;;32.90;99.90;;;;;;5088807;28;20250;-70
2021/07/20 10:01:05;;;;;;;8.27;5.53;;;34.40;99.90;;;;;;5083622;28;20210;-71
2021/07/20 10:03:56;;;;;;;7.00;6.30;;;36.10;99.90;;;;;;5085277;28;20879;-70
2021/07/20 10:06:32;;;;;;;8.60;7.03;;;36.80;99.90;;;;;;5085196;28;20262;-69
2021/07/20 10:09:02;;;;;;;7.10;5.97;;;38.30;99.90;;;;;;5074009;28;20193;-73
2021/07/20 10:11:38;;;;;;;7.45;6.07;;;38.20;99.90;;;;;;5083333;28;20201;-70
2021/07/20 10:14:38;;;;;;;11.13;5.75;;;39.50;99.90;;;;;;5087605;28;20295;-69
2021/07/20 10:17:12;;;;;;;7.03;6.05;;;37.90;99.90;;;;;;5087297;28;20209;-70
2021/07/20 10:19:47;;;;;;;7.07;6.47;;;38.00;99.90;;;;;;5077244;28;20246;-70
2021/07/20 10:22:16;;;;;;;5.90;5.40;;;36.80;99.90;;;;;;5089160;28;20241;-71
2021/07/20 10:24:49;;;;;;;6.88;5.57;;;37.30;99.90;;;;;;5087729;28;20213;-71
2021/07/20 10:27:21;;;;;;;6.55;5.97;;;37.60;99.90;;;;;;5089747;28;20714;-72
2021/07/20 10:29:59;;;;;;;6.05;5.53;;;38.40;99.90;;;;;;5082388;28;20255;-70
2021/07/20 10:32:33;;;;;;;6.45;5.85;;;37.00;99.90;;;;;;5083960;28;20208;-71
2021/07/20 10:35:08;;;;;;;7.43;6.63;;;36.10;99.90;;;;;;5083840;28;20631;-70
2021/07/20 10:37:40;;;;;;;6.22;5.72;;;37.80;99.90;;;;;;5086976;28;20262;-70
2021/07/20 10:40:12;;;;;;;7.55;6.85;;;36.60;99.90;;;;;;5084985;28;20238;-71
2021/07/20 10:42:45;;;;;;;9.32;7.03;;;34.70;99.90;;;;;;5087923;28;20203;-70
2021/07/20 10:45:15;;;;;;;6.63;5.53;;;33.70;99.90;;;;;;5075718;28;20621;-70
2021/07/20 10:47:48;;;;;;;11.10;6.35;;;33.30;99.90;;;;;;5089482;28;20232;-70
2021/07/20 10:50:23;;;;;;;9.77;6.90;;;33.20;99.90;;;;;;5085443;28;20627;-70
2021/07/20 10:53:09;;;;;;;8.23;6.75;;;33.20;99.90;;;;;;5069984;28;20665;-70
2021/07/20 10:55:48;;;;;;;7.30;6.43;;;33.40;99.90;;;;;;5057356;28;20209;-70
2021/07/20 10:58:27;;;;;;;7.68;5.68;;;32.80;99.90;;;;;;5069993;28;20214;-72
2021/07/20 11:00:59;;;;;;;8.55;5.18;;;33.00;99.90;;;;;;5069741;28;20259;-73
2021/07/20 11:03:47;;;;;;;6.30;5.70;;;32.80;99.90;;;;;;5069775;28;20275;-71
2021/07/20 11:06:19;;;;;;;12.57;6.82;;;32.60;99.90;;;;;;5070186;28;20206;-71
2021/07/20 11:08:51;;;;;;;7.60;6.68;;;33.20;99.90;;;;;;5069592;28;20209;-71
2021/07/20 11:11:22;;;;;;;6.20;5.65;;;33.00;99.90;;;;;;5073597;28;20198;-72
2021/07/20 11:13:53;;;;;;;6.78;5.25;;;33.30;99.90;;;;;;5073399;28;20205;-72
2021/07/20 11:16:21;;;;;;;8.07;5.93;;;33.00;99.90;;;;;;5073306;28;20194;-71
2021/07/20 11:18:51;;;;;;;7.38;5.85;;;33.40;99.90;;;;;;5073197;28;20214;-70
2021/07/20 11:21:24;;;;;;;7.43;6.13;;;33.60;99.90;;;;;;5073506;28;20246;-72
2021/07/20 11:23:52;;;;;;;9.40;6.00;;;33.40;99.90;;;;;;5073224;28;20258;-72
2021/07/20 11:26:20;;;;;;;6.75;6.15;;;33.50;99.90;;;;;;5073049;28;20266;-73
2021/07/20 11:28:48;;;;;;;6.68;5.95;;;33.30;99.90;;;;;;5072183;28;20322;-71
2021/07/20 11:31:22;;;;;;;9.93;6.95;;;32.90;99.90;;;;;;5073035;28;20236;-72
2021/07/20 11:33:55;;;;;;;7.22;6.53;;;33.20;99.90;;;;;;5070984;28;20201;-72
2021/07/20 11:36:26;;;;;;;17.42;6.28;;;33.20;99.90;;;;;;5078407;28;20760;-72
2021/07/20 11:38:56;;;;;;;7.30;6.60;;;33.00;99.90;;;;;;5072727;28;20214;-72
2021/07/20 11:41:38;;;;;;;7.93;6.80;;;33.30;99.90;;;;;;5072780;28;20198;-73
2021/07/20 11:44:18;;;;;;;7.03;6.25;;;33.10;99.90;;;;;;5073660;28;20255;-72
2021/07/20 11:46:52;;;;;;;6.50;5.90;;;33.00;99.90;;;;;;5072138;28;20622;-72
2021/07/20 11:49:29;;;;;;;8.43;6.20;;;33.30;99.90;;;;;;5073149;28;20212;-75
2021/07/20 11:52:04;;;;;;;8.45;6.57;;;33.50;99.90;;;;;;5072685;28;20548;-73
2021/07/20 11:54:45;;;;;;;8.23;5.85;;;33.30;99.90;;;;;;5073513;28;20205;-70
2021/07/20 11:58:06;;;;;;;7.45;6.72;;;33.50;99.90;;;;;;5072635;28;20255;-73
2021/07/20 12:01:15;;;;;;;5.93;5.22;;;33.40;99.90;;;;;;5010863;28;20277;-71
2021/07/20 12:03:58;;;;;;;7.13;6.47;;;33.20;99.90;;;;;;5072404;28;20202;-72
2021/07/20 12:06:47;;;;;;;7.07;6.38;;;33.10;99.90;;;;;;5072766;28;20209;-71
2021/07/20 12:09:30;;;;;;;6.53;5.80;;;33.00;99.90;;;;;;5068504;28;20668;-72
2021/07/20 12:11:59;;;;;;;6.40;5.85;;;33.10;99.90;;;;;;5077260;28;20202;-72
2021/07/20 12:14:26;;;;;;;6.80;6.03;;;33.30;99.90;;;;;;5084682;28;20299;-70
2021/07/20 12:16:55;;;;;;;7.10;6.32;;;33.30;99.90;;;;;;5088775;28;20204;-71
2021/07/20 12:19:30;;;;;;;7.72;6.13;;;33.30;99.90;;;;;;5078964;28;20209;-71
2021/07/20 12:22:01;;;;;;;7.00;6.05;;;33.30;99.90;;;;;;5082904;28;20253;-74
2021/07/20 12:24:30;;;;;;;7.03;6.43;;;33.30;99.90;;;;;;5088407;28;20258;-73
2021/07/20 12:26:57;;;;;;;9.57;6.00;;;33.30;99.90;;;;;;5080868;28;20266;-72
2021/07/20 12:29:24;;;;;;;7.30;6.15;;;33.50;99.90;;;;;;5080807;28;20626;-72
2021/07/20 12:31:52;;;;;;;7.15;6.38;;;33.60;99.90;;;;;;5086019;28;20246;-73
2021/07/20 12:34:20;;;;;;;6.68;6.00;;;33.80;99.90;;;;;;5087749;28;20635;-73
2021/07/20 12:36:47;;;;;;;6.65;6.05;;;33.40;99.90;;;;;;5081545;28;20628;-71
2021/07/20 12:39:17;;;;;;;7.10;6.05;;;33.40;99.90;;;;;;5086280;28;20747;-72
2021/07/20 12:41:48;;;;;;;9.35;6.35;;;33.40;99.90;;;;;;5078744;28;20201;-75
2021/07/20 12:44:16;;;;;;;7.78;6.82;;;33.30;99.90;;;;;;5087809;28;20204;-71
2021/07/20 12:46:43;;;;;;;6.35;5.75;;;33.60;99.90;;;;;;5082708;28;20206;-72
2021/07/20 12:49:11;;;;;;;7.35;5.38;;;33.60;99.90;;;;;;5085321;28;20784;-71
2021/07/20 12:51:47;;;;;;;7.68;6.00;;;33.90;99.90;;;;;;5080976;28;20624;-73
2021/07/20 12:54:14;;;;;;;7.32;6.63;;;33.90;99.90;;;;;;5081926;28;20201;-72
2021/07/20 12:56:41;;;;;;;5.90;5.30;;;34.00;99.90;;;;;;5081578;28;20202;-72
2021/07/20 12:59:10;;;;;;;7.18;5.95;;;33.80;99.90;;;;;;5087966;28;20262;-74